Time;durP1;ratioP1;P1;durP2;ratioP2;P2;SDS_P1;SDS_P2;PMS_P1;PMS_P2;Temp;Humidity;BMP_temperature;BMP_pressure;BME280_temperature;BME280_humidity;BME280_pressure;Samples;Min_cycle;Max_cycle;Signal;HPM_P1;HPM_P2
2022/12/03 00:00:14;;;;;;;14.63;8.63;;;;;;;10.01;69.24;101072.97;4996290;28;20368;-74
2022/12/03 00:02:42;;;;;;;14.32;8.27;;;;;;;9.98;69.55;101067.78;4995185;28;20455;-73
2022/12/03 00:05:12;;;;;;;13.63;7.80;;;;;;;9.96;69.54;101074.97;4996022;28;20162;-75
2022/12/03 00:07:40;;;;;;;15.15;8.60;;;;;;;9.96;69.46;101069.66;4996551;28;20068;-75
2022/12/03 00:10:09;;;;;;;13.43;8.40;;;;;;;9.97;69.78;101079.38;4995164;28;20089;-75
2022/12/03 00:12:37;;;;;;;13.88;8.20;;;;;;;9.96;69.47;101074.97;4996138;28;20138;-73
2022/12/03 00:15:07;;;;;;;14.05;8.45;;;;;;;9.93;69.53;101077.75;4996149;28;20046;-73
2022/12/03 00:17:35;;;;;;;13.85;9.07;;;;;;;9.92;69.63;101078.69;4996126;28;20047;-73
2022/12/03 00:20:04;;;;;;;14.27;8.88;;;;;;;9.93;69.68;101085.75;4995680;28;20522;-72
2022/12/03 00:22:34;;;;;;;13.23;8.23;;;;;;;9.91;69.80;101085.84;4995992;28;20049;-73
2022/12/03 00:25:02;;;;;;;14.88;8.45;;;;;;;9.87;69.91;101092.25;4994622;28;20053;-73
2022/12/03 00:27:30;;;;;;;11.80;8.40;;;;;;;9.87;70.04;101092.25;4995913;28;20042;-74
2022/12/03 00:29:58;;;;;;;13.15;8.23;;;;;;;9.87;69.99;101081.59;4995904;28;20485;-72
2022/12/03 00:32:27;;;;;;;13.65;8.32;;;;;;;9.87;69.93;101086.06;4996016;28;20408;-73
2022/12/03 00:34:55;;;;;;;13.85;8.43;;;;;;;9.86;70.02;101092.31;4995884;28;20077;-72
2022/12/03 00:37:23;;;;;;;13.85;8.18;;;;;;;9.85;70.08;101091.44;4995711;28;20057;-73
2022/12/03 00:39:52;;;;;;;14.10;8.80;;;;;;;9.88;70.09;101095.78;4995171;28;20069;-73
2022/12/03 00:42:21;;;;;;;15.10;8.77;;;;;;;9.89;70.02;101100.16;4995575;28;20050;-73
2022/12/03 00:44:49;;;;;;;14.27;8.85;;;;;;;9.88;70.04;101093.97;4995589;28;20050;-73
2022/12/03 00:47:18;;;;;;;15.23;8.75;;;;;;;9.88;69.91;101098.44;4995466;28;20088;-73
2022/12/03 00:49:46;;;;;;;14.38;8.82;;;;;;;9.84;69.96;101097.69;4995055;28;20503;-75
2022/12/03 00:52:14;;;;;;;12.32;7.78;;;;;;;9.82;70.23;101099.56;4994205;28;20153;-73
2022/12/03 00:54:42;;;;;;;14.38;8.70;;;;;;;9.83;70.52;101100.41;4995446;28;20117;-73
2022/12/03 00:57:11;;;;;;;12.73;8.38;;;;;;;9.83;70.07;101100.41;4995226;28;20046;-73
2022/12/03 00:59:39;;;;;;;15.20;8.88;;;;;;;9.85;70.05;101093.25;4995378;28;20081;-73
2022/12/03 01:02:07;;;;;;;14.90;8.95;;;;;;;9.86;69.97;101094.97;4997259;28;20105;-73
2022/12/03 01:04:36;;;;;;;15.20;8.80;;;;;;;9.86;70.04;101089.66;4996179;28;20046;-72
2022/12/03 01:07:04;;;;;;;14.45;9.20;;;;;;;9.86;70.06;101086.97;4995163;28;20053;-72
2022/12/03 01:09:33;;;;;;;14.75;9.00;;;;;;;9.85;70.04;101095.91;4995315;28;20072;-74
2022/12/03 01:12:01;;;;;;;14.93;9.05;;;;;;;9.82;70.10;101082.72;4995367;28;20053;-72
2022/12/03 01:14:30;;;;;;;14.73;8.68;;;;;;;9.80;70.19;101081.91;4995194;28;20050;-72
2022/12/03 01:16:59;;;;;;;13.88;8.48;;;;;;;9.80;70.10;101082.78;4995397;28;20062;-74
2022/12/03 01:19:27;;;;;;;13.75;8.55;;;;;;;9.79;69.99;101085.50;4994944;28;20129;-74
2022/12/03 01:21:55;;;;;;;15.18;8.77;;;;;;;9.83;70.04;101090.63;4994931;28;20050;-71
2022/12/03 01:24:23;;;;;;;13.27;8.18;;;;;;;9.83;70.10;101095.09;4994940;28;20467;-72
2022/12/03 01:26:52;;;;;;;14.27;9.00;;;;;;;9.82;70.10;101088.03;4995244;28;20132;-75
2022/12/03 01:29:20;;;;;;;15.25;9.02;;;;;;;9.81;70.11;101091.63;4994471;28;20050;-72
2022/12/03 01:34:34;;;;;;;13.93;8.48;;;;;;;9.83;69.90;101095.97;4994909;28;20054;-73
2022/12/03 01:37:03;;;;;;;14.15;8.60;;;;;;;9.85;69.94;101093.25;4994601;28;20058;-73
2022/12/03 01:39:31;;;;;;;13.77;8.68;;;;;;;9.85;69.97;101095.91;4994864;28;20046;-73
2022/12/03 01:41:59;;;;;;;14.10;8.50;;;;;;;9.86;69.82;101105.63;4994524;28;20600;-74
2022/12/03 01:44:30;;;;;;;15.70;9.27;;;;;;;9.85;69.90;101103.91;4994170;28;20053;-74
2022/12/03 01:47:02;;;;;;;14.93;8.98;;;;;;;9.85;69.83;101104.78;4994732;28;20121;-74
2022/12/03 01:49:35;;;;;;;15.63;8.95;;;;;;;9.83;70.06;101103.09;4993175;28;20129;-72
2022/12/03 01:52:03;;;;;;;15.03;9.00;;;;;;;9.84;69.96;101104.81;4994437;28;20105;-72
2022/12/03 01:54:36;;;;;;;16.40;8.68;;;;;;;9.85;69.96;101110.09;4994130;28;20050;-72
2022/12/03 01:57:06;;;;;;;13.60;8.30;;;;;;;9.84;69.69;101095.03;4994560;28;20472;-72
2022/12/03 01:59:38;;;;;;;14.35;8.35;;;;;;;9.86;69.88;101100.31;4993912;28;20057;-73
2022/12/03 02:02:13;;;;;;;14.23;7.95;;;;;;;9.88;69.77;101095.78;4995185;28;20377;-73
2022/12/03 02:04:41;;;;;;;13.65;8.43;;;;;;;9.85;69.78;101101.25;4993163;28;20445;-72
2022/12/03 02:07:20;;;;;;;13.98;8.25;;;;;;;9.83;69.97;101097.75;4994379;28;20073;-73
2022/12/03 02:09:48;;;;;;;14.02;8.65;;;;;;;9.81;69.99;101097.84;4994705;28;20093;-72
2022/12/03 02:12:19;;;;;;;14.80;9.10;;;;;;;9.83;69.90;101090.63;4994496;28;20483;-74
2022/12/03 02:14:47;;;;;;;15.13;9.32;;;;;;;9.84;69.69;101096.81;4994323;28;20100;-72
2022/12/03 02:17:17;;;;;;;14.15;8.75;;;;;;;9.84;69.79;101084.38;4994192;28;20050;-74
2022/12/03 02:19:46;;;;;;;14.30;8.43;;;;;;;9.83;69.89;101089.75;4995043;28;20448;-73
2022/12/03 02:22:27;;;;;;;13.45;8.30;;;;;;;9.82;69.88;101082.72;4994579;28;20053;-74
2022/12/03 02:25:05;;;;;;;13.20;8.85;;;;;;;9.81;69.82;101086.31;4993943;28;20050;-74
2022/12/03 02:27:34;;;;;;;14.35;8.68;;;;;;;9.80;69.90;101087.25;4994289;28;20061;-74
2022/12/03 02:30:03;;;;;;;14.70;9.15;;;;;;;9.78;69.99;101086.44;4994049;28;20744;-73
2022/12/03 02:32:31;;;;;;;14.10;8.50;;;;;;;9.78;69.95;101087.31;4994234;28;20438;-74
2022/12/03 02:34:59;;;;;;;14.73;8.95;;;;;;;9.80;69.96;101088.09;4994136;28;20056;-74
2022/12/03 02:37:30;;;;;;;14.32;8.48;;;;;;;9.80;69.92;101090.78;4993949;28;20126;-74
2022/12/03 02:40:04;;;;;;;12.93;8.10;;;;;;;9.79;70.01;101089.03;4993785;28;20141;-71
2022/12/03 02:42:36;;;;;;;14.70;8.95;;;;;;;9.80;69.91;101092.56;4993504;28;20069;-74
2022/12/03 02:45:08;;;;;;;14.30;8.70;;;;;;;9.78;69.99;101092.66;4994263;28;20046;-72
2022/12/03 02:47:41;;;;;;;15.30;8.55;;;;;;;9.77;70.09;101095.38;4993826;28;20137;-72
2022/12/03 02:50:12;;;;;;;14.30;8.20;;;;;;;9.78;70.05;101092.66;4993461;28;20073;-74
2022/12/03 02:52:43;;;;;;;15.18;8.88;;;;;;;9.77;70.05;101095.38;4992214;28;20046;-73
2022/12/03 02:55:13;;;;;;;12.63;8.13;;;;;;;9.78;69.93;101091.78;4993627;28;20069;-72
2022/12/03 02:57:45;;;;;;;14.25;8.77;;;;;;;9.77;70.06;101090.91;4994003;28;20451;-73
2022/12/03 03:00:14;;;;;;;14.07;8.77;;;;;;;9.76;70.13;101089.19;4993514;28;20081;-72
2022/12/03 03:02:43;;;;;;;14.57;8.63;;;;;;;9.78;69.98;101097.97;4993744;28;20046;-73
2022/12/03 03:05:13;;;;;;;14.02;9.05;;;;;;;9.77;70.14;101093.59;4997694;28;20049;-75
2022/12/03 03:07:42;;;;;;;13.00;8.25;;;;;;;9.77;69.99;101095.38;4998940;28;20046;-73
2022/12/03 03:10:14;;;;;;;13.07;8.65;;;;;;;9.78;69.90;101091.78;4999170;28;20100;-73
2022/12/03 03:12:43;;;;;;;13.75;8.38;;;;;;;9.79;69.89;101085.50;4997883;28;20050;-72
2022/12/03 03:15:12;;;;;;;14.77;8.82;;;;;;;9.80;70.15;101092.56;4996847;28;20487;-74
2022/12/03 03:17:42;;;;;;;15.80;8.65;;;;;;;9.79;69.96;101088.19;4997159;28;20046;-75
2022/12/03 03:20:11;;;;;;;14.30;8.02;;;;;;;9.79;69.99;101077.53;4997186;28;20054;-74
2022/12/03 03:22:41;;;;;;;15.23;8.73;;;;;;;9.79;69.91;101083.72;4996513;28;20097;-71
2022/12/03 03:25:16;;;;;;;15.00;9.38;;;;;;;9.81;69.93;101086.31;4996262;28;20053;-71
2022/12/03 03:27:45;;;;;;;13.65;8.80;;;;;;;9.81;69.81;101091.63;4996719;28;20488;-72
2022/12/03 03:30:14;;;;;;;14.13;8.93;;;;;;;9.81;69.78;101091.63;4997178;28;20100;-73
2022/12/03 03:32:43;;;;;;;13.98;8.57;;;;;;;9.81;69.78;101091.63;4995698;28;20054;-73
2022/12/03 03:35:13;;;;;;;15.20;8.60;;;;;;;9.81;69.77;101096.97;4996904;28;20047;-72
2022/12/03 03:37:42;;;;;;;14.50;8.50;;;;;;;9.81;69.77;101096.97;4996998;28;20051;-73
2022/12/03 03:40:11;;;;;;;14.10;8.57;;;;;;;9.80;69.93;101095.25;4995129;28;20066;-74
2022/12/03 03:42:39;;;;;;;13.70;8.85;;;;;;;9.79;69.83;101093.50;4996722;28;20042;-73
2022/12/03 03:45:09;;;;;;;14.23;9.48;;;;;;;9.79;69.73;101094.38;4995211;28;20405;-73
2022/12/03 03:47:38;;;;;;;15.68;8.65;;;;;;;9.81;69.89;101088.97;4996806;28;20054;-72
2022/12/03 03:50:08;;;;;;;13.20;8.60;;;;;;;9.79;69.94;101088.19;4995677;28;20377;-72
2022/12/03 03:52:39;;;;;;;14.95;8.75;;;;;;;9.80;69.83;101092.56;4996571;28;20054;-73
2022/12/03 03:55:10;;;;;;;14.20;8.43;;;;;;;9.80;69.85;101092.56;4996299;28;20046;-72
2022/12/03 03:57:39;;;;;;;13.15;8.32;;;;;;;9.78;69.84;101092.66;4996846;28;20055;-74
2022/12/03 04:00:10;;;;;;;13.95;8.60;;;;;;;9.78;69.85;101091.78;4996404;28;20050;-74
2022/12/03 04:02:38;;;;;;;14.48;8.93;;;;;;;9.78;69.80;101091.78;4996369;28;20046;-73
2022/12/03 04:05:07;;;;;;;15.75;8.57;;;;;;;9.75;69.95;101090.13;4996572;28;20046;-74
2022/12/03 04:07:35;;;;;;;15.57;9.05;;;;;;;9.72;70.14;101092.91;4996471;28;20054;-72
2022/12/03 04:12:54;;;;;;;14.15;8.40;;;;;;;9.71;70.20;101086.72;4995942;28;20545;-73
2022/12/03 04:12:54;;;;;;;13.68;8.48;;;;;;;9.71;70.02;101089.38;4995197;28;20097;-73
2022/12/03 04:15:24;;;;;;;13.10;8.05;;;;;;;9.72;69.94;101103.56;4995322;28;20450;-72
2022/12/03 04:20:35;;;;;;;14.75;8.80;;;;;;;9.73;70.11;101100.81;4995833;28;20050;-74
2022/12/03 04:23:02;;;;;;;14.15;8.50;;;;;;;9.73;70.03;101110.59;4996735;28;20082;-73
2022/12/03 04:35:41;;;;;;;15.10;9.20;;;;;;;9.74;69.89;101091.88;4996280;28;20061;-73
2022/12/03 04:36:37;;;;;;;13.68;8.35;;;;;;;9.72;70.04;101096.44;4995779;28;20042;-73
2022/12/03 04:39:05;;;;;;;16.45;9.45;;;;;;;9.73;70.09;101100.81;4994206;28;20412;-73
2022/12/03 04:41:33;;;;;;;15.82;8.15;;;;;;;9.73;70.09;101094.63;4994687;28;20054;-72
2022/12/03 04:46:48;;;;;;;15.48;9.45;;;;;;;9.73;70.12;101086.63;4994648;28;20051;-72
2022/12/03 04:49:17;;;;;;;14.02;8.90;;;;;;;9.72;70.06;101085.78;4994263;28;20465;-72
2022/12/03 04:51:45;;;;;;;13.73;8.98;;;;;;;9.72;69.95;101092.91;4995483;28;20117;-72
2022/12/03 04:54:13;;;;;;;13.95;8.93;;;;;;;9.71;69.97;101097.38;4995403;28;20038;-74
2022/12/03 04:56:41;;;;;;;14.88;9.25;;;;;;;9.72;70.09;101096.44;4995730;28;20046;-74
2022/12/03 04:59:09;;;;;;;15.18;9.35;;;;;;;9.73;69.87;101105.28;4994397;28;20074;-74
2022/12/03 05:01:43;;;;;;;14.23;8.75;;;;;;;9.72;70.13;101109.75;4995890;28;20057;-72
2022/12/03 05:04:13;;;;;;;15.48;9.25;;;;;;;9.69;69.91;101107.22;4995408;28;20400;-74
2022/12/03 05:06:42;;;;;;;14.05;8.80;;;;;;;9.69;70.18;101109.88;4994197;28;20078;-74
2022/12/03 05:09:11;;;;;;;15.75;9.95;;;;;;;9.69;70.03;101112.56;4995304;28;20050;-73
2022/12/03 05:11:39;;;;;;;15.95;9.55;;;;;;;9.69;70.10;101109.03;4994829;28;20042;-75
2022/12/03 05:14:08;;;;;;;14.90;9.07;;;;;;;9.63;70.09;101099.47;4995133;28;20046;-74
2022/12/03 05:16:36;;;;;;;16.23;9.20;;;;;;;9.69;70.11;101115.22;4993230;28;20050;-72
2022/12/03 05:19:06;;;;;;;16.05;9.43;;;;;;;9.68;69.94;101121.47;4994792;28;20472;-74
2022/12/03 05:21:36;;;;;;;16.00;9.35;;;;;;;9.69;70.25;101119.69;4994814;28;20054;-74
2022/12/03 05:24:05;;;;;;;14.43;9.05;;;;;;;9.68;70.06;101118.81;4994492;28;20050;-73
2022/12/03 05:26:33;;;;;;;15.40;9.20;;;;;;;9.68;70.00;101121.47;4992665;28;20058;-74
2022/12/03 05:29:01;;;;;;;14.63;9.02;;;;;;;9.64;70.29;101111.88;4994327;28;20384;-74
2022/12/03 05:31:29;;;;;;;14.07;8.77;;;;;;;9.67;70.06;101117.09;4994496;28;20057;-74
2022/12/03 05:33:57;;;;;;;16.45;9.65;;;;;;;9.68;69.99;101123.28;4993429;28;20050;-74
2022/12/03 05:36:25;;;;;;;16.35;9.23;;;;;;;9.70;70.07;101119.59;4994350;28;20495;-74
2022/12/03 05:38:55;;;;;;;17.35;9.75;;;;;;;9.71;70.11;101110.69;4994616;28;20057;-74
2022/12/03 05:44:08;;;;;;;14.90;9.35;;;;;;;9.72;69.87;101108.88;4994599;28;20049;-74
2022/12/03 05:46:36;;;;;;;15.40;9.52;;;;;;;9.72;70.09;101119.53;4994463;28;20042;-74
2022/12/03 05:49:05;;;;;;;15.20;9.18;;;;;;;9.70;69.73;101113.41;4994467;28;20054;-74
2022/12/03 05:51:33;;;;;;;16.20;9.57;;;;;;;9.72;69.86;101123.06;4994160;28;20050;-73
2022/12/03 05:54:02;;;;;;;15.50;9.50;;;;;;;9.68;69.98;101116.16;4994642;28;20043;-74
2022/12/03 05:56:30;;;;;;;14.55;8.63;;;;;;;9.71;69.79;101123.13;4994078;28;20105;-73
2022/12/03 05:58:59;;;;;;;15.80;9.70;;;;;;;9.69;69.99;101131.19;4993061;28;20050;-74
2022/12/03 06:01:27;;;;;;;15.05;9.23;;;;;;;9.67;69.98;101126.88;4994659;28;20073;-74
2022/12/03 06:03:55;;;;;;;16.65;9.52;;;;;;;9.69;69.77;101136.53;4994414;28;20492;-73
2022/12/03 06:06:23;;;;;;;16.15;9.48;;;;;;;9.69;69.99;101136.53;4993245;28;20050;-74
2022/12/03 06:08:51;;;;;;;18.48;9.68;;;;;;;9.71;69.69;101140.00;4994263;28;20051;-74
2022/12/03 06:11:21;;;;;;;15.25;9.57;;;;;;;9.68;69.91;101141.94;4994024;28;20400;-74
2022/12/03 06:13:49;;;;;;;14.50;8.95;;;;;;;9.65;70.24;101142.94;4994061;28;20133;-74
2022/12/03 06:16:17;;;;;;;15.43;9.57;;;;;;;9.66;70.15;101135.81;4993931;28;20054;-74
2022/12/03 06:18:46;;;;;;;16.23;9.75;;;;;;;9.70;69.78;101137.41;4994305;28;20085;-74
2022/12/03 06:21:14;;;;;;;15.70;9.52;;;;;;;9.71;69.89;101133.78;4993942;28;20043;-73
2022/12/03 06:23:43;;;;;;;16.08;9.13;;;;;;;9.71;69.83;101124.00;4992781;28;20507;-74
2022/12/03 06:26:12;;;;;;;16.60;10.20;;;;;;;9.71;69.76;101134.66;4993847;28;20129;-74
2022/12/03 06:28:45;;;;;;;17.17;9.68;;;;;;;9.71;69.81;101141.78;4993967;28;20046;-74
2022/12/03 06:31:13;;;;;;;16.67;9.52;;;;;;;9.71;69.76;101140.00;4993826;28;20084;-74
2022/12/03 06:33:41;;;;;;;15.60;8.95;;;;;;;9.71;69.95;101132.00;4993531;28;20068;-74
2022/12/03 06:36:09;;;;;;;16.48;9.68;;;;;;;9.69;69.70;101128.53;4993829;28;20070;-74
2022/12/03 06:38:37;;;;;;;15.60;9.60;;;;;;;9.70;69.94;101122.28;4995165;28;20450;-73
2022/12/03 06:41:06;;;;;;;14.23;9.43;;;;;;;9.70;69.77;101127.59;4996882;28;20053;-73
2022/12/03 06:43:34;;;;;;;16.38;9.60;;;;;;;9.69;70.04;101135.66;4995640;28;20054;-72
2022/12/03 06:46:03;;;;;;;15.55;8.82;;;;;;;9.69;69.94;101141.84;4996805;28;20105;-73
2022/12/03 06:48:32;;;;;;;15.95;9.30;;;;;;;9.69;70.00;101141.84;4997146;28;20047;-73
2022/12/03 06:51:00;;;;;;;15.73;9.43;;;;;;;9.71;70.12;101149.78;4997614;28;20054;-74
2022/12/03 06:53:28;;;;;;;16.55;9.70;;;;;;;9.71;69.83;101145.31;4997564;28;20399;-74
2022/12/03 06:55:56;;;;;;;16.13;9.80;;;;;;;9.71;69.97;101140.00;4997823;28;20499;-73
2022/12/03 06:58:24;;;;;;;15.90;9.50;;;;;;;9.71;69.80;101134.66;4997510;28;20050;-74
2022/12/03 07:00:52;;;;;;;15.40;9.20;;;;;;;9.71;69.80;101133.78;4997650;28;20053;-74
2022/12/03 07:03:22;;;;;;;15.55;9.15;;;;;;;9.73;69.68;101146.13;4996612;28;20104;-74
2022/12/03 07:05:50;;;;;;;17.13;9.57;;;;;;;9.74;69.80;101145.19;4997014;28;20054;-74
2022/12/03 07:08:19;;;;;;;15.35;8.73;;;;;;;9.76;69.75;101145.13;4997368;28;20053;-74
2022/12/03 07:10:47;;;;;;;14.07;8.98;;;;;;;9.76;69.53;101137.16;4997252;28;20069;-74
2022/12/03 07:13:15;;;;;;;16.10;9.80;;;;;;;9.79;69.50;101144.13;4995655;28;20050;-74
2022/12/03 07:15:43;;;;;;;17.50;10.05;;;;;;;9.80;69.50;101141.41;4996912;28;20046;-74
2022/12/03 07:18:12;;;;;;;16.63;9.70;;;;;;;9.79;69.44;101141.47;4997008;28;20399;-73
2022/12/03 07:20:41;;;;;;;14.65;9.23;;;;;;;9.78;69.62;101139.75;4997055;28;20045;-74
2022/12/03 07:23:09;;;;;;;13.18;8.82;;;;;;;9.80;69.67;101137.88;4995711;28;20495;-73
2022/12/03 07:25:37;;;;;;;16.42;9.63;;;;;;;9.72;69.60;101141.72;4997401;28;20062;-74
2022/12/03 07:28:05;;;;;;;18.00;9.70;;;;;;;9.72;70.02;101140.84;4996964;28;20349;-74
2022/12/03 07:30:34;;;;;;;17.35;10.00;;;;;;;9.75;69.65;101148.75;4996811;28;20182;-73
2022/12/03 07:33:02;;;;;;;18.33;9.80;;;;;;;9.72;69.87;101140.84;4996774;28;20062;-74
2022/12/03 07:35:30;;;;;;;16.38;9.80;;;;;;;9.74;69.77;101144.31;4995895;28;20046;-74
2022/12/03 07:37:59;;;;;;;16.20;10.02;;;;;;;9.77;69.73;101149.53;4996763;28;20579;-74
2022/12/03 07:40:27;;;;;;;16.48;9.32;;;;;;;9.75;69.81;101152.28;4995516;28;20408;-74
2022/12/03 07:42:55;;;;;;;15.32;9.15;;;;;;;9.75;69.74;101146.94;4996622;28;20054;-74
2022/12/03 07:45:23;;;;;;;15.65;9.82;;;;;;;9.76;69.79;101142.47;4996527;28;20136;-73
2022/12/03 07:47:52;;;;;;;15.80;9.00;;;;;;;9.75;69.72;101154.94;4996583;28;20058;-73
2022/12/03 07:50:20;;;;;;;15.55;9.75;;;;;;;9.75;69.79;101141.59;4995023;28;20205;-74
2022/12/03 07:52:48;;;;;;;15.95;9.27;;;;;;;9.78;69.90;101147.72;4996408;28;20034;-74
2022/12/03 07:55:18;;;;;;;15.98;9.38;;;;;;;9.78;69.57;101134.41;4995150;28;20081;-74
2022/12/03 07:57:46;;;;;;;15.88;9.70;;;;;;;9.79;69.79;101136.13;4995117;28;20058;-74
2022/12/03 08:00:15;;;;;;;16.15;10.13;;;;;;;9.79;69.70;101136.13;4996417;28;20459;-75
2022/12/03 08:02:43;;;;;;;16.25;9.52;;;;;;;9.79;69.94;101142.34;4995006;28;20074;-75
2022/12/03 08:05:11;;;;;;;16.00;9.57;;;;;;;9.73;70.01;101143.44;4996002;28;20480;-74
2022/12/03 08:07:39;;;;;;;18.65;10.60;;;;;;;9.72;69.96;101152.38;4996042;28;20096;-75
2022/12/03 08:10:09;;;;;;;15.68;10.05;;;;;;;9.72;70.00;101149.72;4996146;28;20053;-73
2022/12/03 08:12:42;;;;;;;17.10;9.90;;;;;;;9.73;70.19;101156.78;4995767;28;20042;-74
2022/12/03 08:15:13;;;;;;;15.75;9.80;;;;;;;9.74;70.08;101152.31;4995993;28;20555;-73
2022/12/03 08:17:42;;;;;;;18.30;10.20;;;;;;;9.73;69.99;101148.78;4996968;28;20538;-73
2022/12/03 08:20:17;;;;;;;17.48;9.90;;;;;;;9.73;69.93;101148.78;4993299;28;20312;-74
2022/12/03 08:22:47;;;;;;;15.70;9.73;;;;;;;9.74;69.89;101153.16;4990946;28;20054;-74
2022/12/03 08:25:21;;;;;;;16.35;9.93;;;;;;;9.75;69.96;101152.28;4992735;28;20054;-73
2022/12/03 08:27:52;;;;;;;16.58;9.75;;;;;;;9.74;70.22;101149.63;4994539;28;20424;-74
2022/12/03 08:30:20;;;;;;;15.85;9.45;;;;;;;9.74;70.17;101153.16;4995902;28;20078;-76
2022/12/03 08:32:49;;;;;;;18.00;9.93;;;;;;;9.74;70.36;101150.50;4994057;28;20097;-73
2022/12/03 08:35:22;;;;;;;16.50;9.77;;;;;;;9.77;70.24;101154.00;5009411;28;20097;-73
2022/12/03 08:37:56;;;;;;;16.58;9.50;;;;;;;9.77;70.07;101160.19;4994579;28;20069;-75
2022/12/03 08:40:33;;;;;;;16.45;10.02;;;;;;;9.80;70.03;101159.19;4995391;28;20046;-75
2022/12/03 08:43:12;;;;;;;16.42;10.15;;;;;;;9.79;70.02;101153.00;4995830;28;20450;-75
2022/12/03 08:45:42;;;;;;;15.88;10.45;;;;;;;9.83;70.00;101153.72;4996069;28;20042;-73
2022/12/03 08:48:25;;;;;;;18.25;10.68;;;;;;;9.81;70.27;101155.59;4995099;28;20046;-73
2022/12/03 08:50:55;;;;;;;18.00;9.90;;;;;;;9.83;70.04;101167.03;4992706;28;20050;-72
2022/12/03 08:53:31;;;;;;;17.08;9.98;;;;;;;9.82;70.42;101158.19;4993260;28;20463;-72
2022/12/03 08:56:01;;;;;;;16.45;9.68;;;;;;;9.85;70.20;101157.22;4990877;28;20050;-72
2022/12/03 08:58:41;;;;;;;18.02;10.60;;;;;;;9.85;70.12;101163.41;4995192;28;20046;-72
2022/12/03 09:01:31;;;;;;;17.52;10.38;;;;;;;9.86;70.32;101164.25;4994594;28;20125;-73
2022/12/03 09:04:15;;;;;;;17.73;10.05;;;;;;;9.87;70.12;101166.00;4981278;28;20062;-73
2022/12/03 09:06:44;;;;;;;15.10;9.40;;;;;;;9.87;70.19;101179.31;4994726;28;20074;-73
2022/12/03 09:09:12;;;;;;;19.27;10.32;;;;;;;9.89;70.17;101174.78;4994965;28;20050;-73
2022/12/03 09:11:42;;;;;;;14.88;9.80;;;;;;;9.90;70.05;101160.53;4993606;28;20129;-73
2022/12/03 09:14:12;;;;;;;15.50;9.15;;;;;;;9.90;70.12;101161.38;4994839;28;20039;-72
2022/12/03 09:16:46;;;;;;;17.38;9.73;;;;;;;9.91;70.04;101160.44;4995005;28;20053;-74
2022/12/03 09:19:15;;;;;;;17.70;10.18;;;;;;;9.93;70.19;101160.38;4994845;28;20129;-72
2022/12/03 09:21:43;;;;;;;15.55;9.55;;;;;;;9.94;70.05;101168.34;4994881;28;20046;-72
2022/12/03 09:24:12;;;;;;;16.98;10.57;;;;;;;9.95;70.21;101158.53;4994600;28;20042;-73
2022/12/03 09:26:40;;;;;;;16.48;9.77;;;;;;;9.96;70.19;101158.47;4994643;28;20042;-73
2022/12/03 09:29:08;;;;;;;16.55;10.13;;;;;;;9.98;70.01;101150.41;4994628;28;20081;-73
2022/12/03 09:31:41;;;;;;;16.55;9.80;;;;;;;10.00;70.12;101143.19;4994211;28;20388;-72
2022/12/03 09:34:09;;;;;;;15.30;8.52;;;;;;;10.02;70.24;101144.84;4994699;28;20052;-73
2022/12/03 09:36:37;;;;;;;16.27;9.75;;;;;;;10.03;70.35;101141.25;4994754;28;20047;-73
2022/12/03 09:39:06;;;;;;;16.25;9.85;;;;;;;10.04;70.22;101139.47;4994529;28;20054;-73
2022/12/03 09:41:35;;;;;;;14.15;8.98;;;;;;;10.04;70.33;101136.81;4994289;28;20129;-74
2022/12/03 09:44:04;;;;;;;15.27;9.85;;;;;;;10.04;70.51;101137.69;4994660;28;20053;-73
2022/12/03 09:46:44;;;;;;;13.93;8.35;;;;;;;10.05;70.26;101133.22;4993724;28;20129;-73
2022/12/03 09:49:16;;;;;;;14.32;9.00;;;;;;;10.07;70.52;101141.13;4995156;28;20451;-73
2022/12/03 09:51:45;;;;;;;15.88;9.80;;;;;;;10.08;70.15;101134.88;4996409;28;20133;-73
2022/12/03 09:54:23;;;;;;;15.90;9.65;;;;;;;10.08;70.20;101127.75;4994321;28;20046;-73
2022/12/03 09:56:53;;;;;;;16.13;9.85;;;;;;;10.09;70.10;101118.81;4994452;28;20058;-72
2022/12/03 09:59:23;;;;;;;17.20;9.20;;;;;;;10.10;70.11;101120.53;4993930;28;20100;-73
2022/12/03 10:01:52;;;;;;;16.00;9.68;;;;;;;10.11;70.19;101119.59;4994777;28;20137;-73
2022/12/03 10:04:21;;;;;;;17.15;10.45;;;;;;;10.13;70.42;101119.53;4994481;28;20046;-74
2022/12/03 10:06:49;;;;;;;17.98;10.20;;;;;;;10.15;70.38;101117.69;4994240;28;20050;-74
2022/12/03 10:09:23;;;;;;;14.80;9.15;;;;;;;10.19;70.04;101119.25;4994220;28;20046;-75
2022/12/03 10:11:52;;;;;;;15.48;9.65;;;;;;;10.19;69.87;101120.13;4994347;28;20078;-74
2022/12/03 10:14:20;;;;;;;16.70;10.25;;;;;;;10.22;69.67;101116.47;4996873;28;20054;-74
2022/12/03 10:16:48;;;;;;;14.93;9.65;;;;;;;10.26;70.03;101108.28;4997041;28;20475;-74
2022/12/03 10:19:23;;;;;;;14.68;9.63;;;;;;;10.29;70.22;101100.16;4998165;28;20046;-73
2022/12/03 10:21:51;;;;;;;15.82;9.73;;;;;;;10.34;70.15;101091.09;4998173;28;20133;-73
2022/12/03 10:24:25;;;;;;;18.27;9.68;;;;;;;10.43;70.65;101096.88;4996805;28;20141;-73
2022/12/03 10:26:55;;;;;;;14.07;8.82;;;;;;;10.49;70.67;101095.69;4996610;28;20562;-72
2022/12/03 10:29:26;;;;;;;14.52;8.68;;;;;;;10.49;70.48;101091.22;4998038;28;20046;-73
2022/12/03 10:32:02;;;;;;;14.93;9.32;;;;;;;10.56;70.21;101087.34;4996171;28;20046;-73
2022/12/03 10:34:34;;;;;;;17.40;9.68;;;;;;;10.57;70.36;101077.53;4996934;28;20050;-73
2022/12/03 10:37:14;;;;;;;15.10;8.85;;;;;;;10.57;70.27;101081.06;4998022;28;20109;-73
2022/12/03 10:39:58;;;;;;;14.15;9.15;;;;;;;10.56;70.40;101076.66;4998022;28;20070;-73
2022/12/03 10:42:28;;;;;;;15.30;9.32;;;;;;;10.58;70.49;101079.25;4996826;28;20069;-74
2022/12/03 10:45:23;;;;;;;15.23;8.88;;;;;;;10.63;70.32;101071.91;4997456;28;20054;-73
2022/12/03 10:48:12;;;;;;;12.95;8.20;;;;;;;10.65;70.29;101075.38;4963265;28;20535;-73
2022/12/03 10:50:50;;;;;;;14.57;8.93;;;;;;;10.67;70.51;101078.81;4996558;28;20406;-72
2022/12/03 10:53:20;;;;;;;17.08;9.32;;;;;;;10.76;70.08;101072.19;4997936;28;20056;-72
2022/12/03 10:55:51;;;;;;;13.75;8.65;;;;;;;10.79;70.18;101067.56;4997434;28;20042;-70
2022/12/03 10:58:22;;;;;;;14.80;8.70;;;;;;;10.80;70.16;101063.09;4997193;28;20058;-73
2022/12/03 11:00:53;;;;;;;14.23;7.78;;;;;;;10.79;70.43;101066.69;4997484;28;20042;-72
2022/12/03 11:03:23;;;;;;;13.98;8.50;;;;;;;10.83;70.25;101061.16;4997445;28;20357;-73
2022/12/03 11:05:55;;;;;;;15.65;8.48;;;;;;;10.83;70.31;101058.50;4997288;28;20050;-73
2022/12/03 11:08:25;;;;;;;14.02;8.55;;;;;;;10.89;70.32;101057.31;4997602;28;20074;-73
2022/12/03 11:10:58;;;;;;;14.32;8.77;;;;;;;10.90;70.50;101048.34;4997265;28;20042;-73
2022/12/03 11:13:44;;;;;;;12.95;8.23;;;;;;;10.88;70.46;101048.44;4997445;28;20048;-73
2022/12/03 11:16:13;;;;;;;15.10;8.40;;;;;;;10.89;70.72;101036.81;4997112;28;20101;-72
2022/12/03 11:19:03;;;;;;;14.63;8.85;;;;;;;10.97;71.29;101043.59;4997008;28;20503;-70
2022/12/03 11:21:33;;;;;;;15.20;8.38;;;;;;;11.05;71.51;101036.06;4997869;28;20170;-70
2022/12/03 11:24:20;;;;;;;15.65;8.75;;;;;;;11.06;71.97;101032.47;4991496;28;20090;-68
2022/12/03 11:27:17;;;;;;;18.23;8.48;;;;;;;11.11;71.92;101033.09;4994955;28;20046;-71
2022/12/03 11:29:49;;;;;;;18.98;8.48;;;;;;;11.18;71.86;101031.84;4997203;28;20042;-69
2022/12/03 11:32:59;;;;;;;18.95;9.57;;;;;;;11.27;72.20;101031.38;4995689;28;20129;-69
2022/12/03 11:35:28;;;;;;;23.30;9.30;;;;;;;11.43;73.56;101023.44;4993057;28;20073;-69
2022/12/03 11:38:40;;;;;;;32.58;10.63;;;;;;;11.58;74.27;101016.44;4977764;28;20043;-69
2022/12/03 11:41:09;;;;;;;34.95;9.43;;;;;;;11.65;74.84;101015.19;4995363;28;20058;-66
2022/12/03 11:44:13;;;;;;;26.02;10.15;;;;;;;11.76;76.80;101011.00;4996470;28;20042;-68
2022/12/03 11:46:44;;;;;;;32.80;10.60;;;;;;;12.04;78.83;101010.41;4996872;28;20042;-69
2022/12/03 11:49:39;;;;;;;30.90;11.48;;;;;;;12.20;77.74;101022.97;4997020;28;20061;-69
2022/12/03 11:52:23;;;;;;;29.05;10.68;;;;;;;12.26;77.01;101007.44;4995160;28;20097;-69
2022/12/03 11:54:57;;;;;;;31.15;10.55;;;;;;;12.31;76.63;101015.19;4996743;28;20141;-69
2022/12/03 11:57:31;;;;;;;29.80;9.73;;;;;;;12.29;76.48;101007.25;4996402;28;20491;-65